createdAt,value
2019-04-30T00:01:31.046Z,4.17
2019-04-30T00:04:40.473Z,3.30
2019-04-30T00:07:46.105Z,4.20
2019-04-30T00:10:49.824Z,4.03
2019-04-30T00:13:55.405Z,4.23
2019-04-30T00:16:59.359Z,3.90
2019-04-30T00:20:03.183Z,4.10
2019-04-30T00:23:07.679Z,4.40
2019-04-30T00:26:11.539Z,4.47
2019-04-30T00:29:19.297Z,4.00
2019-04-30T00:32:20.954Z,4.37
2019-04-30T00:35:25.351Z,4.43
2019-04-30T00:38:33.226Z,4.47
2019-04-30T00:41:35.377Z,3.80
2019-04-30T00:44:39.375Z,4.37
2019-04-30T00:47:44.483Z,4.03
2019-04-30T00:50:49.011Z,4.87
2019-04-30T00:53:52.846Z,4.10
2019-04-30T00:56:57.446Z,4.40
2019-04-30T01:00:02.382Z,4.83
2019-04-30T01:03:11.734Z,5.10
2019-04-30T01:06:17.184Z,4.30
2019-04-30T01:09:21.255Z,4.70
2019-04-30T01:12:30.934Z,4.80
2019-04-30T01:15:30.644Z,4.30
2019-04-30T01:18:34.603Z,4.33
2019-04-30T01:21:41.764Z,5.00
2019-04-30T01:24:44.304Z,4.73
2019-04-30T01:27:49.138Z,4.43
2019-04-30T01:30:53.895Z,4.90
2019-04-30T01:33:59.009Z,4.47
2019-04-30T01:37:02.969Z,4.83
2019-04-30T01:40:13.488Z,4.47
2019-04-30T01:43:13.114Z,4.37
2019-04-30T01:46:16.955Z,4.77
2019-04-30T01:49:25.641Z,4.57
2019-04-30T01:52:35.072Z,4.20
2019-04-30T01:56:10.317Z,4.20
2019-04-30T01:59:23.585Z,4.50
2019-04-30T02:02:29.193Z,4.23
2019-04-30T02:05:33.031Z,4.50
2019-04-30T02:08:36.918Z,4.27
2019-04-30T02:11:40.778Z,4.53
2019-04-30T02:14:44.603Z,4.80
2019-04-30T02:17:50.376Z,4.47
2019-04-30T02:20:54.184Z,4.77
2019-04-30T02:23:58.884Z,4.33
2019-04-30T02:27:02.904Z,4.60
2019-04-30T02:30:10.777Z,4.50
2019-04-30T02:33:12.858Z,4.60
2019-04-30T02:36:49.912Z,4.53
2019-04-30T02:39:53.678Z,4.33
2019-04-30T02:43:01.240Z,4.80
2019-04-30T02:46:05.862Z,4.60
2019-04-30T02:49:12.260Z,4.80
2019-04-30T02:52:19.562Z,4.13
2019-04-30T02:55:35.517Z,4.40
2019-04-30T02:58:40.975Z,4.53
2019-04-30T03:01:45.152Z,5.03
2019-04-30T03:04:50.267Z,4.97
2019-04-30T03:07:54.137Z,4.13
2019-04-30T03:11:00.105Z,4.77
2019-04-30T03:14:03.650Z,5.40
2019-04-30T03:17:20.700Z,4.57
2019-04-30T03:20:36.291Z,4.83
2019-04-30T03:23:39.099Z,5.20
2019-04-30T03:26:43.355Z,5.00
2019-04-30T03:29:50.010Z,5.30
2019-04-30T03:32:56.821Z,5.53
2019-04-30T03:36:02.286Z,5.20
2019-04-30T03:39:05.339Z,5.97
2019-04-30T03:42:11.386Z,5.03
2019-04-30T03:45:16.471Z,5.77
2019-04-30T03:48:20.546Z,6.10
2019-04-30T03:51:26.122Z,5.50
2019-04-30T03:54:29.976Z,5.60
2019-04-30T03:57:33.791Z,6.13
2019-04-30T04:00:46.714Z,4.97
2019-04-30T04:04:10.132Z,4.90
2019-04-30T04:07:36.121Z,5.83
2019-04-30T04:10:53.090Z,6.30
2019-04-30T04:13:55.711Z,6.43
2019-04-30T04:17:00.135Z,5.97
2019-04-30T04:20:04.121Z,6.27
2019-04-30T04:23:09.680Z,5.93
2019-04-30T04:26:13.606Z,6.40
2019-04-30T04:29:19.686Z,6.43
2019-04-30T04:32:24.415Z,6.40
2019-04-30T04:35:29.876Z,5.73
2019-04-30T04:38:33.975Z,6.03
2019-04-30T04:41:39.951Z,5.30
2019-04-30T04:44:43.301Z,6.53
2019-04-30T04:47:47.092Z,6.70
2019-04-30T04:50:50.921Z,6.87
2019-04-30T04:53:54.742Z,7.27
2019-04-30T04:57:13.968Z,7.37
2019-04-30T05:00:07.416Z,7.20
2019-04-30T05:03:39.938Z,8.13
2019-04-30T05:06:43.933Z,7.90
2019-04-30T05:09:48.961Z,8.17
2019-04-30T05:12:52.834Z,8.17
2019-04-30T05:15:56.679Z,9.50
2019-04-30T05:19:01.227Z,10.40
2019-04-30T05:22:05.124Z,10.70
2019-04-30T05:25:10.212Z,10.77
2019-04-30T05:28:14.118Z,11.83
2019-04-30T05:31:18.479Z,14.80
2019-04-30T05:34:23.481Z,16.87
2019-04-30T05:37:28.433Z,16.30
2019-04-30T05:40:32.501Z,16.73
2019-04-30T05:43:36.323Z,16.77
2019-04-30T05:46:40.166Z,16.20
2019-04-30T05:49:43.994Z,18.60
2019-04-30T05:52:49.315Z,18.27
2019-04-30T05:55:53.353Z,18.47
2019-04-30T05:58:59.239Z,19.07
2019-04-30T06:02:03.003Z,19.40
2019-04-30T06:05:08.716Z,18.47
2019-04-30T06:08:16.654Z,19.40
2019-04-30T06:11:39.510Z,21.00
2019-04-30T06:14:52.729Z,20.93
2019-04-30T06:18:01.125Z,21.40
2019-04-30T06:21:02.320Z,22.20
2019-04-30T06:24:06.215Z,21.23
2019-04-30T06:27:11.101Z,21.90
2019-04-30T06:30:15.190Z,20.97
2019-04-30T06:33:19.449Z,21.67
2019-04-30T06:36:23.440Z,21.77
2019-04-30T06:39:28.821Z,20.73
2019-04-30T06:42:32.793Z,21.87
2019-04-30T06:45:38.633Z,22.23
2019-04-30T06:48:45.612Z,19.73
2019-04-30T06:51:49.176Z,18.83
2019-04-30T06:54:53.110Z,18.80
2019-04-30T06:58:10.872Z,18.13
2019-04-30T07:01:02.445Z,17.83
2019-04-30T07:04:06.353Z,17.23
2019-04-30T07:07:14.317Z,16.17
2019-04-30T07:10:29.357Z,16.47
2019-04-30T07:13:33.153Z,16.40
2019-04-30T07:16:37.015Z,16.27
2019-04-30T07:19:53.150Z,16.50
2019-04-30T07:22:53.394Z,15.07
2019-04-30T07:25:51.975Z,17.03
2019-04-30T07:28:55.838Z,16.03
2019-04-30T07:31:59.614Z,15.40
2019-04-30T07:35:03.533Z,15.40
2019-04-30T07:38:09.176Z,14.53
2019-04-30T07:41:12.916Z,14.50
2019-04-30T07:44:31.089Z,15.03
2019-04-30T07:47:22.273Z,15.40
2019-04-30T07:50:26.720Z,15.97
2019-04-30T07:53:31.086Z,14.93
2019-04-30T07:56:38.038Z,14.47
2019-04-30T07:59:40.448Z,13.90
2019-04-30T08:02:51.902Z,14.67
2019-04-30T08:05:59.626Z,14.43
2019-04-30T08:09:02.865Z,13.33
2019-04-30T08:12:08.960Z,13.50
2019-04-30T08:15:12.602Z,14.50
2019-04-30T08:18:18.390Z,13.83
2019-04-30T08:21:22.037Z,14.00
2019-04-30T08:24:25.864Z,13.97
2019-04-30T08:27:29.748Z,15.47
2019-04-30T08:30:33.580Z,15.07
2019-04-30T08:33:37.407Z,13.57
2019-04-30T08:36:41.215Z,12.47
2019-04-30T08:39:45.049Z,13.13
2019-04-30T08:42:49.581Z,12.03
2019-04-30T08:45:53.678Z,12.17
2019-04-30T08:48:58.732Z,12.00
2019-04-30T08:52:02.793Z,12.50
2019-04-30T08:55:16.034Z,10.97
2019-04-30T08:58:15.174Z,12.37
2019-04-30T09:01:19.516Z,11.20
2019-04-30T09:04:25.870Z,11.33
2019-04-30T09:07:29.821Z,12.20
2019-04-30T09:10:33.610Z,13.00
2019-04-30T09:13:38.930Z,17.20
2019-04-30T09:16:43.127Z,13.00
2019-04-30T09:19:48.925Z,12.83
2019-04-30T09:22:52.597Z,23.90
2019-04-30T09:25:58.502Z,12.97
2019-04-30T09:29:02.000Z,13.00
2019-04-30T09:32:05.933Z,11.77
2019-04-30T09:35:09.919Z,10.47
2019-04-30T09:38:13.795Z,14.93
2019-04-30T09:41:19.261Z,13.83
2019-04-30T09:44:23.412Z,11.77
2019-04-30T09:47:27.333Z,14.23
2019-04-30T09:50:31.349Z,11.63
2019-04-30T09:53:35.325Z,11.10
2019-04-30T09:56:39.399Z,11.23
2019-04-30T09:59:43.238Z,12.13
2019-04-30T10:02:48.877Z,11.33
2019-04-30T10:05:52.863Z,12.53
2019-04-30T10:08:56.949Z,11.03
2019-04-30T10:12:09.769Z,10.53
2019-04-30T10:15:20.812Z,11.10
2019-04-30T10:18:24.715Z,11.40
2019-04-30T10:21:29.064Z,13.30
2019-04-30T10:24:33.973Z,12.10
2019-04-30T10:27:38.787Z,11.83
2019-04-30T10:30:42.849Z,11.37
2019-04-30T10:33:48.500Z,11.83
2019-04-30T10:36:52.440Z,10.77
2019-04-30T10:39:56.390Z,15.47
2019-04-30T10:43:00.377Z,14.63
2019-04-30T10:46:04.699Z,13.70
2019-04-30T10:49:09.124Z,13.33
2019-04-30T10:52:13.199Z,12.67
2019-04-30T10:55:17.020Z,31.83
2019-04-30T10:58:20.864Z,13.27
2019-04-30T11:01:24.796Z,11.50
2019-04-30T11:04:28.807Z,12.00
2019-04-30T11:07:32.655Z,12.20
2019-04-30T11:10:39.792Z,13.63
2019-04-30T11:13:43.423Z,10.63
2019-04-30T11:16:51.224Z,11.73
2019-04-30T11:19:53.024Z,9.93
2019-04-30T11:22:57.117Z,18.57
2019-04-30T11:26:01.806Z,17.70
2019-04-30T11:29:06.381Z,16.43
2019-04-30T11:32:18.888Z,16.30
2019-04-30T11:35:23.225Z,15.60
2019-04-30T11:38:27.082Z,15.53
2019-04-30T11:41:33.305Z,14.73
2019-04-30T11:44:38.697Z,15.30
2019-04-30T11:47:53.084Z,26.10
2019-04-30T11:50:49.677Z,14.30
2019-04-30T11:53:53.596Z,13.20
2019-04-30T11:56:58.841Z,13.17
2019-04-30T12:00:03.044Z,57.40
2019-04-30T12:03:08.955Z,12.40
2019-04-30T12:06:12.770Z,11.70
2019-04-30T12:09:35.784Z,13.07
2019-04-30T12:12:39.689Z,12.83
2019-04-30T12:15:43.619Z,11.63
2019-04-30T12:18:47.425Z,11.60
2019-04-30T12:21:51.267Z,11.73
2019-04-30T12:25:02.607Z,12.17
2019-04-30T12:28:00.589Z,10.90
2019-04-30T12:31:05.968Z,44.60
2019-04-30T12:34:09.996Z,11.90
2019-04-30T12:37:13.905Z,11.03
2019-04-30T12:40:28.123Z,10.77
2019-04-30T12:43:23.651Z,13.63
2019-04-30T12:46:28.946Z,11.43
2019-04-30T12:49:54.710Z,11.43
2019-04-30T12:53:01.961Z,13.77
2019-04-30T12:56:26.253Z,13.00
2019-04-30T12:59:23.343Z,12.30
2019-04-30T13:02:29.029Z,16.23
2019-04-30T13:05:33.213Z,12.73
2019-04-30T13:08:37.567Z,61.57
2019-04-30T13:11:42.468Z,44.40
2019-04-30T13:14:52.345Z,107.30
2019-04-30T13:17:52.280Z,32.33
2019-04-30T13:20:56.302Z,10.83
2019-04-30T13:24:00.179Z,41.07
2019-04-30T13:27:04.174Z,9.40
2019-04-30T13:30:18.614Z,10.27
2019-04-30T13:33:39.182Z,8.93
2019-04-30T13:36:43.170Z,9.03
2019-04-30T13:39:54.833Z,35.00
2019-04-30T13:42:58.769Z,29.63
2019-04-30T13:46:02.700Z,10.93
2019-04-30T13:49:06.619Z,10.10
2019-04-30T13:52:10.516Z,12.63
2019-04-30T13:55:14.648Z,10.47
2019-04-30T13:58:18.529Z,11.37
2019-04-30T14:01:22.584Z,10.33
2019-04-30T14:04:35.063Z,11.47
2019-04-30T14:07:59.858Z,11.50
2019-04-30T14:11:03.828Z,11.40
2019-04-30T14:14:07.837Z,11.70
2019-04-30T14:17:11.748Z,16.13
2019-04-30T14:20:15.723Z,11.07
2019-04-30T14:23:19.579Z,11.83
2019-04-30T14:26:23.440Z,14.73
2019-04-30T14:29:28.475Z,12.03
2019-04-30T14:32:33.127Z,12.20
2019-04-30T14:35:38.600Z,11.90
2019-04-30T14:38:42.624Z,10.77
2019-04-30T14:41:50.666Z,11.50
2019-04-30T14:45:00.119Z,11.60
2019-04-30T14:48:10.402Z,12.63
2019-04-30T14:51:14.814Z,11.20
2019-04-30T14:54:27.843Z,19.33
2019-04-30T14:57:53.618Z,11.93
2019-04-30T15:01:16.025Z,14.47
2019-04-30T15:04:20.541Z,12.60
2019-04-30T15:07:24.671Z,17.13
2019-04-30T15:10:28.680Z,13.03
2019-04-30T15:13:32.755Z,12.93
2019-04-30T15:16:36.648Z,23.53
2019-04-30T15:19:40.640Z,13.07
2019-04-30T15:22:54.495Z,13.30
2019-04-30T15:25:58.745Z,14.53
2019-04-30T15:29:11.853Z,13.30
2019-04-30T15:32:08.749Z,13.40
2019-04-30T15:35:12.752Z,13.77
2019-04-30T15:38:16.601Z,14.10
2019-04-30T15:41:21.020Z,13.80
2019-04-30T15:44:25.027Z,22.80
2019-04-30T15:47:29.020Z,14.60
2019-04-30T15:50:32.945Z,17.70
2019-04-30T15:53:36.784Z,18.33
2019-04-30T15:56:43.647Z,16.10
2019-04-30T15:59:46.639Z,17.50
2019-04-30T16:03:00.220Z,16.40
2019-04-30T16:06:04.225Z,17.37
2019-04-30T16:09:10.788Z,17.47
2019-04-30T16:12:22.117Z,17.40
2019-04-30T16:15:26.095Z,18.27
2019-04-30T16:18:38.780Z,18.10
2019-04-30T16:21:42.830Z,17.67
2019-04-30T16:24:46.820Z,18.07
2019-04-30T16:27:50.677Z,18.33
2019-04-30T16:30:54.537Z,16.97
2019-04-30T16:33:58.421Z,15.23
2019-04-30T16:37:02.365Z,14.40
2019-04-30T16:40:08.323Z,13.70
2019-04-30T16:43:12.602Z,13.87
2019-04-30T16:46:16.492Z,13.57
2019-04-30T16:49:20.349Z,12.70
2019-04-30T16:52:24.271Z,13.40
2019-04-30T16:55:28.157Z,12.70
2019-04-30T16:58:51.102Z,13.77
2019-04-30T17:01:57.731Z,12.93
2019-04-30T17:05:21.886Z,13.03
2019-04-30T17:08:31.530Z,12.77
2019-04-30T17:12:00.426Z,14.13
2019-04-30T17:15:16.671Z,14.37
2019-04-30T17:18:20.501Z,14.23
2019-04-30T17:21:24.445Z,14.33
2019-04-30T17:24:30.304Z,14.27
2019-04-30T17:27:33.945Z,15.53
2019-04-30T17:30:39.196Z,15.27
2019-04-30T17:33:43.404Z,15.47
2019-04-30T17:36:47.754Z,15.37
2019-04-30T17:39:53.033Z,14.13
2019-04-30T17:42:56.863Z,14.80
2019-04-30T17:46:00.817Z,14.63
2019-04-30T17:49:04.785Z,15.57
2019-04-30T17:52:08.880Z,15.33
2019-04-30T17:55:13.065Z,15.30
2019-04-30T17:58:16.977Z,16.33
2019-04-30T18:01:20.856Z,15.83
2019-04-30T18:04:24.745Z,18.00
2019-04-30T18:07:29.608Z,30.30
2019-04-30T18:10:34.320Z,19.03
2019-04-30T18:13:38.147Z,17.57
2019-04-30T18:16:42.003Z,19.37
2019-04-30T18:20:09.027Z,17.83
2019-04-30T18:23:35.810Z,18.37
2019-04-30T18:26:46.826Z,20.20
2019-04-30T18:29:50.792Z,20.77
2019-04-30T18:32:54.645Z,21.20
2019-04-30T18:35:59.704Z,20.37
2019-04-30T18:39:04.631Z,21.40
2019-04-30T18:42:10.830Z,21.80
2019-04-30T18:45:14.305Z,22.13
2019-04-30T18:48:19.524Z,21.63
2019-04-30T18:51:35.931Z,21.87
2019-04-30T18:54:29.156Z,21.20
2019-04-30T18:57:33.149Z,20.63
2019-04-30T19:00:40.639Z,22.00
2019-04-30T19:03:44.493Z,20.93
2019-04-30T19:06:49.147Z,21.77
2019-04-30T19:10:03.524Z,22.80
2019-04-30T19:13:20.047Z,22.40
2019-04-30T19:16:51.752Z,22.70
2019-04-30T19:20:04.688Z,25.53
2019-04-30T19:23:10.164Z,27.80
2019-04-30T19:26:14.024Z,27.70
2019-04-30T19:29:17.936Z,27.57
2019-04-30T19:32:21.743Z,26.57
2019-04-30T19:35:25.571Z,26.47
2019-04-30T19:38:29.424Z,26.33
2019-04-30T19:41:33.281Z,26.00
2019-04-30T19:44:39.285Z,25.77
2019-04-30T19:47:42.738Z,31.30
2019-04-30T19:50:48.746Z,28.53
2019-04-30T19:53:52.291Z,24.30
2019-04-30T19:56:56.219Z,22.67
2019-04-30T20:00:00.098Z,23.20
2019-04-30T20:03:04.300Z,22.93
2019-04-30T20:06:09.014Z,23.73
2019-04-30T20:09:13.061Z,23.03
2019-04-30T20:12:18.741Z,24.13
2019-04-30T20:15:24.739Z,24.63
2019-04-30T20:18:29.251Z,24.17
2019-04-30T20:21:45.670Z,23.63
2019-04-30T20:24:39.406Z,24.43
2019-04-30T20:27:43.381Z,23.93
2019-04-30T20:30:48.953Z,23.60
2019-04-30T20:33:53.811Z,23.67
2019-04-30T20:36:58.329Z,23.40
2019-04-30T20:40:10.231Z,21.97
2019-04-30T20:43:14.086Z,20.40
2019-04-30T20:46:29.743Z,20.87
2019-04-30T20:49:23.648Z,20.80
2019-04-30T20:52:29.068Z,20.80
2019-04-30T20:55:33.080Z,19.87
2019-04-30T20:58:39.100Z,19.83
2019-04-30T21:01:42.603Z,20.13
2019-04-30T21:04:46.453Z,19.27
2019-04-30T21:07:50.502Z,20.87
2019-04-30T21:10:54.490Z,20.07
2019-04-30T21:13:59.088Z,18.27
2019-04-30T21:17:03.215Z,20.20
2019-04-30T21:20:09.642Z,20.03
2019-04-30T21:23:13.182Z,19.83
2019-04-30T21:26:17.090Z,21.23
2019-04-30T21:29:21.110Z,20.30
2019-04-30T21:32:48.536Z,21.50
2019-04-30T21:35:59.036Z,22.30
2019-04-30T21:39:03.931Z,23.03
2019-04-30T21:42:09.306Z,22.97
2019-04-30T21:45:13.398Z,22.20
2019-04-30T21:48:19.151Z,23.03
2019-04-30T21:51:22.861Z,22.23
2019-04-30T21:54:28.294Z,22.17
2019-04-30T21:57:32.436Z,20.80
2019-04-30T22:00:54.501Z,19.63
2019-04-30T22:03:58.409Z,21.37
2019-04-30T22:07:02.235Z,20.13
2019-04-30T22:10:06.359Z,20.67
2019-04-30T22:13:10.380Z,19.93
2019-04-30T22:16:14.342Z,20.17
2019-04-30T22:19:18.178Z,19.30
2019-04-30T22:22:22.016Z,20.27
2019-04-30T22:25:26.006Z,20.90
2019-04-30T22:28:29.845Z,21.63
2019-04-30T22:31:33.688Z,21.53
2019-04-30T22:34:37.648Z,21.80
2019-04-30T22:37:41.450Z,21.83
2019-04-30T22:40:45.326Z,21.37
2019-04-30T22:43:49.153Z,20.93
2019-04-30T22:46:52.998Z,21.87
2019-04-30T22:49:56.807Z,23.57
2019-04-30T22:53:00.794Z,23.20
2019-04-30T22:56:04.782Z,23.57
2019-04-30T22:59:08.740Z,25.43
2019-04-30T23:02:30.580Z,24.97
2019-04-30T23:05:34.533Z,18.57
2019-04-30T23:08:39.266Z,18.37
2019-04-30T23:11:43.179Z,16.30
2019-04-30T23:14:47.167Z,17.70
2019-04-30T23:17:51.438Z,17.47
2019-04-30T23:20:55.301Z,16.33
2019-04-30T23:23:59.153Z,16.67
2019-04-30T23:27:02.970Z,16.33
2019-04-30T23:30:07.220Z,16.60
2019-04-30T23:33:11.129Z,18.10
2019-04-30T23:36:15.112Z,17.57
2019-04-30T23:39:19.040Z,18.00
2019-04-30T23:42:22.863Z,18.10
2019-04-30T23:45:26.864Z,18.07
2019-04-30T23:48:30.691Z,18.07
2019-04-30T23:51:34.606Z,18.83
2019-04-30T23:54:38.445Z,17.97
2019-04-30T23:57:42.337Z,19.07
